SVA566 OMDB-OERK
Flight info
| Callsign | SVA566 |
|---|---|
| Flight time | 1h 39m |
| Altitude | 36000 |
| Route | SENPA N571 ALPOB L768 ULADA T136 OTISU N112 GETOT Q212 MEMGO |
| Aircraft | A321/M-SDE3FGHIRWY/LB1 |
Departure
| Time | 2026-04-24 15:02 |
|---|---|
| Airport | Dubai International Airport (OMDB) |
Arrival
| Time | 2026-04-24 16:41 |
|---|---|
| Airport | King Khalid International Airport (OERK) |
| Time | Latitude | Longitude | Altitude | Speed | Heading |
|---|---|---|---|---|---|
| 2026-04-24 14:04 | 25.24954 | 55.35770 | 25 ft | 0 kts | 31° |
| 2026-04-24 14:47 | 25.24942 | 55.35762 | 22 ft | 4 kts | 31° |
| 2026-04-24 14:47 | 25.24911 | 55.35743 | 24 ft | 4 kts | 17° |
| 2026-04-24 14:47 | 25.24885 | 55.35739 | 26 ft | 4 kts | 346° |
| 2026-04-24 14:47 | 25.24867 | 55.35750 | 26 ft | 1 kts | 304° |
| 2026-04-24 14:50 | 25.24871 | 55.35743 | 24 ft | 4 kts | 304° |
| 2026-04-24 14:51 | 25.24906 | 55.35686 | 23 ft | 16 kts | 305° |
| 2026-04-24 14:51 | 25.24979 | 55.35566 | 22 ft | 19 kts | 303° |
| 2026-04-24 14:51 | 25.25049 | 55.35440 | 22 ft | 19 kts | 301° |
| 2026-04-24 14:51 | 25.25119 | 55.35319 | 22 ft | 19 kts | 305° |
| 2026-04-24 14:52 | 25.25192 | 55.35203 | 23 ft | 18 kts | 305° |
| 2026-04-24 14:52 | 25.25260 | 55.35088 | 24 ft | 18 kts | 302° |
| 2026-04-24 14:52 | 25.25323 | 55.34974 | 22 ft | 17 kts | 300° |
| 2026-04-24 14:52 | 25.25410 | 55.34895 | 22 ft | 16 kts | 350° |
| 2026-04-24 14:53 | 25.25513 | 55.34934 | 22 ft | 16 kts | 31° |
| 2026-04-24 14:53 | 25.25605 | 55.34996 | 22 ft | 15 kts | 32° |
| 2026-04-24 14:53 | 25.25692 | 55.35055 | 22 ft | 14 kts | 31° |
| 2026-04-24 14:53 | 25.25733 | 55.35135 | 22 ft | 12 kts | 102° |
| 2026-04-24 14:54 | 25.25754 | 55.35212 | 24 ft | 11 kts | 34° |
| 2026-04-24 14:54 | 25.25817 | 55.35253 | 22 ft | 10 kts | 30° |
| 2026-04-24 14:54 | 25.25877 | 55.35291 | 22 ft | 10 kts | 30° |
| 2026-04-24 14:54 | 25.25932 | 55.35327 | 25 ft | 9 kts | 31° |
| 2026-04-24 14:55 | 25.25965 | 55.35351 | 22 ft | 8 kts | 37° |
| 2026-04-24 14:55 | 25.26000 | 55.35435 | 22 ft | 12 kts | 85° |
| 2026-04-24 14:55 | 25.25986 | 55.35525 | 22 ft | 11 kts | 110° |
| 2026-04-24 14:55 | 25.25943 | 55.35614 | 22 ft | 18 kts | 121° |
| 2026-04-24 14:56 | 25.25859 | 55.35763 | 22 ft | 26 kts | 122° |
| 2026-04-24 14:56 | 25.25794 | 55.35879 | 23 ft | 26 kts | 122° |
| 2026-04-24 14:56 | 25.25670 | 55.36100 | 22 ft | 25 kts | 121° |
| 2026-04-24 14:56 | 25.25584 | 55.36257 | 22 ft | 24 kts | 121° |
| 2026-04-24 14:57 | 25.25500 | 55.36410 | 22 ft | 23 kts | 121° |
| 2026-04-24 14:57 | 25.25420 | 55.36558 | 24 ft | 22 kts | 121° |
| 2026-04-24 14:57 | 25.25341 | 55.36698 | 22 ft | 21 kts | 122° |
| 2026-04-24 14:57 | 25.25267 | 55.36830 | 22 ft | 20 kts | 121° |
| 2026-04-24 14:58 | 25.25196 | 55.36958 | 22 ft | 21 kts | 122° |
| 2026-04-24 14:58 | 25.25109 | 55.37113 | 22 ft | 24 kts | 122° |
| 2026-04-24 14:58 | 25.25051 | 55.37220 | 22 ft | 24 kts | 120° |
| 2026-04-24 14:58 | 25.24968 | 55.37373 | 22 ft | 23 kts | 122° |
| 2026-04-24 14:59 | 25.24887 | 55.37518 | 22 ft | 22 kts | 122° |
| 2026-04-24 14:59 | 25.24809 | 55.37657 | 22 ft | 21 kts | 121° |
| 2026-04-24 14:59 | 25.24736 | 55.37791 | 22 ft | 20 kts | 121° |
| 2026-04-24 14:59 | 25.24666 | 55.37916 | 22 ft | 19 kts | 121° |
| 2026-04-24 15:00 | 25.24624 | 55.38005 | 22 ft | 9 kts | 98° |
| 2026-04-24 15:00 | 25.24653 | 55.38056 | 22 ft | 8 kts | 38° |
| 2026-04-24 15:00 | 25.24699 | 55.38091 | 22 ft | 8 kts | 29° |
| 2026-04-24 15:00 | 25.24765 | 55.38093 | 22 ft | 13 kts | 324° |
| 2026-04-24 15:01 | 25.24821 | 55.38000 | 22 ft | 17 kts | 301° |
| 2026-04-24 15:01 | 25.24951 | 55.37768 | 22 ft | 66 kts | 302° |
| 2026-04-24 15:01 | 25.25301 | 55.37142 | 23 ft | 123 kts | 302° |
| 2026-04-24 15:01 | 25.25827 | 55.36195 | 23 ft | 165 kts | 301° |
| 2026-04-24 15:02 | 25.26449 | 55.35060 | 441 ft | 168 kts | 302° |
| 2026-04-24 15:02 | 25.27033 | 55.33953 | 974 ft | 169 kts | 303° |
| 2026-04-24 15:02 | 25.27631 | 55.32819 | 1443 ft | 174 kts | 304° |
| 2026-04-24 15:02 | 25.28286 | 55.31653 | 1757 ft | 182 kts | 305° |
| 2026-04-24 15:03 | 25.28964 | 55.30459 | 2154 ft | 185 kts | 303° |
| 2026-04-24 15:03 | 25.29534 | 55.29179 | 2560 ft | 188 kts | 286° |
| 2026-04-24 15:03 | 25.29708 | 55.27712 | 2820 ft | 197 kts | 276° |
| 2026-04-24 15:03 | 25.29812 | 55.26147 | 2961 ft | 212 kts | 274° |
| 2026-04-24 15:04 | 25.29900 | 55.24444 | 3059 ft | 234 kts | 274° |
| 2026-04-24 15:04 | 25.29990 | 55.22559 | 3253 ft | 256 kts | 274° |
| 2026-04-24 15:04 | 25.30086 | 55.20557 | 3746 ft | 263 kts | 273° |
| 2026-04-24 15:04 | 25.30185 | 55.18529 | 4385 ft | 265 kts | 273° |
| 2026-04-24 15:05 | 25.30287 | 55.16490 | 5046 ft | 266 kts | 273° |
| 2026-04-24 15:05 | 25.30391 | 55.14443 | 5704 ft | 268 kts | 273° |
| 2026-04-24 15:05 | 25.30496 | 55.12380 | 6354 ft | 269 kts | 273° |
| 2026-04-24 15:05 | 25.30600 | 55.10306 | 6970 ft | 271 kts | 273° |
| 2026-04-24 15:06 | 25.30703 | 55.08212 | 7575 ft | 274 kts | 273° |
| 2026-04-24 15:06 | 25.30808 | 55.06104 | 8187 ft | 276 kts | 272° |
| 2026-04-24 15:06 | 25.30916 | 55.03972 | 8812 ft | 279 kts | 272° |
| 2026-04-24 15:06 | 25.31024 | 55.01819 | 9427 ft | 281 kts | 272° |
| 2026-04-24 15:07 | 25.31130 | 54.99645 | 9982 ft | 286 kts | 272° |
| 2026-04-24 15:07 | 25.31237 | 54.97403 | 10104 ft | 306 kts | 272° |
| 2026-04-24 15:07 | 25.31354 | 54.94984 | 10226 ft | 324 kts | 272° |
| 2026-04-24 15:07 | 25.31477 | 54.92430 | 10346 ft | 341 kts | 272° |
| 2026-04-24 15:08 | 25.31605 | 54.89753 | 10534 ft | 355 kts | 272° |
| 2026-04-24 15:08 | 25.31738 | 54.87007 | 10949 ft | 360 kts | 272° |
| 2026-04-24 15:08 | 25.31874 | 54.84236 | 11446 ft | 363 kts | 272° |
| 2026-04-24 15:08 | 25.32011 | 54.81441 | 11965 ft | 365 kts | 272° |
| 2026-04-24 15:09 | 25.32149 | 54.78631 | 12473 ft | 368 kts | 272° |
| 2026-04-24 15:09 | 25.32286 | 54.75797 | 12983 ft | 370 kts | 272° |
| 2026-04-24 15:09 | 25.32423 | 54.72939 | 13464 ft | 373 kts | 272° |
| 2026-04-24 15:09 | 25.32560 | 54.70061 | 13931 ft | 376 kts | 272° |
| 2026-04-24 15:10 | 25.32695 | 54.67166 | 14389 ft | 377 kts | 272° |
| 2026-04-24 15:10 | 25.32830 | 54.64269 | 14756 ft | 378 kts | 272° |
| 2026-04-24 15:10 | 25.32965 | 54.61360 | 15080 ft | 379 kts | 272° |
| 2026-04-24 15:10 | 25.33102 | 54.58444 | 15542 ft | 381 kts | 272° |
| 2026-04-24 15:11 | 25.33239 | 54.55515 | 15978 ft | 382 kts | 273° |
| 2026-04-24 15:11 | 25.33619 | 54.52601 | 16368 ft | 385 kts | 283° |
| 2026-04-24 15:11 | 25.34369 | 54.49753 | 16763 ft | 387 kts | 285° |
| 2026-04-24 15:11 | 25.35145 | 54.46897 | 17157 ft | 388 kts | 285° |
| 2026-04-24 15:12 | 25.35917 | 54.44040 | 17553 ft | 389 kts | 285° |
| 2026-04-24 15:12 | 25.37460 | 54.38321 | 18284 ft | 392 kts | 285° |
| 2026-04-24 15:12 | 25.38241 | 54.35426 | 18592 ft | 394 kts | 285° |
| 2026-04-24 15:13 | 25.39023 | 54.32519 | 18910 ft | 395 kts | 285° |
| 2026-04-24 15:13 | 25.39806 | 54.29600 | 19226 ft | 397 kts | 285° |
| 2026-04-24 15:13 | 25.40589 | 54.26672 | 19545 ft | 398 kts | 285° |
| 2026-04-24 15:13 | 25.41350 | 54.23716 | 19872 ft | 400 kts | 284° |
| 2026-04-24 15:14 | 25.42088 | 54.20748 | 20211 ft | 401 kts | 284° |
| 2026-04-24 15:14 | 25.42820 | 54.17758 | 20545 ft | 403 kts | 283° |
| 2026-04-24 15:14 | 25.43552 | 54.14754 | 20896 ft | 405 kts | 283° |
| 2026-04-24 15:14 | 25.44288 | 54.11746 | 21267 ft | 406 kts | 283° |
| 2026-04-24 15:15 | 25.45030 | 54.08725 | 21623 ft | 408 kts | 283° |
| 2026-04-24 15:15 | 25.45768 | 54.05690 | 21970 ft | 409 kts | 283° |
| 2026-04-24 15:15 | 25.46504 | 54.02636 | 22318 ft | 411 kts | 283° |
| 2026-04-24 15:15 | 25.47237 | 53.99573 | 22651 ft | 413 kts | 282° |
| 2026-04-24 15:16 | 25.47972 | 53.96491 | 23003 ft | 415 kts | 282° |
| 2026-04-24 15:16 | 25.48710 | 53.93398 | 23331 ft | 416 kts | 282° |
| 2026-04-24 15:16 | 25.49450 | 53.90291 | 23619 ft | 418 kts | 282° |
| 2026-04-24 15:16 | 25.50197 | 53.87170 | 23880 ft | 420 kts | 282° |
| 2026-04-24 15:17 | 25.50948 | 53.84036 | 24153 ft | 422 kts | 282° |
| 2026-04-24 15:17 | 25.51703 | 53.80892 | 24409 ft | 424 kts | 283° |
| 2026-04-24 15:17 | 25.52463 | 53.77728 | 24674 ft | 426 kts | 283° |
| 2026-04-24 15:17 | 25.53225 | 53.74552 | 24940 ft | 428 kts | 283° |
| 2026-04-24 15:18 | 25.53982 | 53.71404 | 25196 ft | 430 kts | 283° |
| 2026-04-24 15:18 | 25.54752 | 53.68194 | 25458 ft | 432 kts | 282° |
| 2026-04-24 15:18 | 25.55523 | 53.64972 | 25731 ft | 434 kts | 283° |
| 2026-04-24 15:18 | 25.56295 | 53.61732 | 25994 ft | 436 kts | 283° |
| 2026-04-24 15:19 | 25.57068 | 53.58482 | 26245 ft | 437 kts | 283° |
| 2026-04-24 15:19 | 25.57843 | 53.55214 | 26496 ft | 439 kts | 283° |
| 2026-04-24 15:19 | 25.58623 | 53.51937 | 26738 ft | 441 kts | 283° |
| 2026-04-24 15:19 | 25.59409 | 53.48647 | 26966 ft | 443 kts | 283° |
| 2026-04-24 15:20 | 25.60196 | 53.45341 | 27185 ft | 444 kts | 283° |
| 2026-04-24 15:20 | 25.60981 | 53.42028 | 27398 ft | 446 kts | 283° |
| 2026-04-24 15:20 | 25.61768 | 53.38700 | 27600 ft | 447 kts | 283° |
| 2026-04-24 15:20 | 25.62556 | 53.35366 | 27791 ft | 448 kts | 283° |
| 2026-04-24 15:21 | 25.63346 | 53.32021 | 27973 ft | 450 kts | 283° |
| 2026-04-24 15:21 | 25.64138 | 53.28662 | 28140 ft | 451 kts | 283° |
| 2026-04-24 15:21 | 25.64932 | 53.25299 | 28363 ft | 450 kts | 283° |
| 2026-04-24 15:21 | 25.65726 | 53.21936 | 28544 ft | 452 kts | 283° |
| 2026-04-24 15:22 | 25.66519 | 53.18566 | 28750 ft | 452 kts | 282° |
| 2026-04-24 15:22 | 25.67308 | 53.15211 | 29111 ft | 448 kts | 282° |
| 2026-04-24 15:22 | 25.68091 | 53.11874 | 29428 ft | 445 kts | 282° |
| 2026-04-24 15:23 | 25.69636 | 53.05244 | 29935 ft | 443 kts | 282° |
| 2026-04-24 15:23 | 25.71758 | 52.98866 | 30334 ft | 446 kts | 295° |
| 2026-04-24 15:23 | 25.73209 | 52.95822 | 30541 ft | 446 kts | 295° |
| 2026-04-24 15:24 | 25.77522 | 52.86709 | 31182 ft | 444 kts | 295° |
| 2026-04-24 15:25 | 25.79913 | 52.81630 | 31547 ft | 443 kts | 294° |
| 2026-04-24 15:25 | 25.83225 | 52.74604 | 32059 ft | 442 kts | 295° |
| 2026-04-24 15:26 | 25.87486 | 52.65547 | 32706 ft | 440 kts | 294° |
| 2026-04-24 15:27 | 25.91682 | 52.56496 | 33378 ft | 438 kts | 293° |
| 2026-04-24 15:27 | 25.95664 | 52.47382 | 34077 ft | 434 kts | 292° |
| 2026-04-24 15:28 | 26.00891 | 52.35480 | 35130 ft | 424 kts | 292° |
| 2026-04-24 15:29 | 26.03515 | 52.29645 | 35586 ft | 420 kts | 292° |
| 2026-04-24 15:30 | 26.07394 | 52.20971 | 35931 ft | 415 kts | 292° |
| 2026-04-24 15:31 | 26.12054 | 52.10488 | 35928 ft | 411 kts | 292° |
| 2026-04-24 15:33 | 26.22640 | 51.86690 | 35934 ft | 413 kts | 291° |
| 2026-04-24 15:34 | 26.28985 | 51.72353 | 35943 ft | 413 kts | 291° |
| 2026-04-24 15:35 | 26.35378 | 51.58019 | 35937 ft | 413 kts | 291° |
| 2026-04-24 15:36 | 26.37888 | 51.52268 | 35964 ft | 410 kts | 287° |
| 2026-04-24 15:36 | 26.40761 | 51.43336 | 35953 ft | 407 kts | 285° |
| 2026-04-24 15:37 | 26.42661 | 51.37387 | 35951 ft | 407 kts | 285° |
| 2026-04-24 15:37 | 26.44557 | 51.31448 | 35953 ft | 406 kts | 285° |
| 2026-04-24 15:38 | 26.46454 | 51.25514 | 35946 ft | 406 kts | 285° |
| 2026-04-24 15:38 | 26.48350 | 51.19583 | 35948 ft | 406 kts | 285° |
| 2026-04-24 15:39 | 26.50233 | 51.13687 | 35967 ft | 405 kts | 285° |
| 2026-04-24 15:39 | 26.52118 | 51.07765 | 35962 ft | 404 kts | 285° |
| 2026-04-24 15:40 | 26.53988 | 51.01852 | 35959 ft | 403 kts | 285° |
| 2026-04-24 15:40 | 26.55856 | 50.95958 | 35952 ft | 402 kts | 285° |
| 2026-04-24 15:41 | 26.57406 | 50.91067 | 35951 ft | 402 kts | 285° |
| 2026-04-24 15:41 | 26.59249 | 50.85174 | 35951 ft | 402 kts | 284° |
| 2026-04-24 15:42 | 26.61072 | 50.79274 | 35947 ft | 401 kts | 284° |
| 2026-04-24 15:42 | 26.62888 | 50.73376 | 35963 ft | 401 kts | 284° |
| 2026-04-24 15:43 | 26.64704 | 50.67475 | 35958 ft | 400 kts | 284° |
| 2026-04-24 15:43 | 26.66460 | 50.61575 | 35953 ft | 400 kts | 283° |
| 2026-04-24 15:44 | 26.68196 | 50.55660 | 35959 ft | 400 kts | 283° |
| 2026-04-24 15:44 | 26.69926 | 50.49793 | 35954 ft | 400 kts | 283° |
| 2026-04-24 15:45 | 26.71588 | 50.43857 | 35948 ft | 399 kts | 282° |
| 2026-04-24 15:45 | 26.73090 | 50.37881 | 35965 ft | 400 kts | 281° |
| 2026-04-24 15:46 | 26.74478 | 50.31867 | 35952 ft | 397 kts | 275° |
| 2026-04-24 15:46 | 26.74245 | 50.25779 | 35944 ft | 392 kts | 255° |
| 2026-04-24 15:47 | 26.72032 | 50.20214 | 35935 ft | 394 kts | 242° |
| 2026-04-24 15:47 | 26.69253 | 50.14917 | 35935 ft | 395 kts | 241° |
| 2026-04-24 15:48 | 26.66468 | 50.09618 | 35937 ft | 396 kts | 241° |
| 2026-04-24 15:48 | 26.63682 | 50.04314 | 35932 ft | 396 kts | 241° |
| 2026-04-24 15:49 | 26.60889 | 49.99004 | 35930 ft | 396 kts | 241° |
| 2026-04-24 15:49 | 26.58100 | 49.93690 | 35933 ft | 396 kts | 241° |
| 2026-04-24 15:50 | 26.55307 | 49.88375 | 35935 ft | 396 kts | 241° |
| 2026-04-24 15:50 | 26.52505 | 49.83077 | 35930 ft | 396 kts | 241° |
| 2026-04-24 15:51 | 26.49792 | 49.77734 | 35937 ft | 394 kts | 248° |
| 2026-04-24 15:51 | 26.48035 | 49.71960 | 35936 ft | 393 kts | 252° |
| 2026-04-24 15:52 | 26.46341 | 49.66163 | 35962 ft | 393 kts | 252° |
| 2026-04-24 15:52 | 26.44633 | 49.60371 | 35967 ft | 393 kts | 252° |
| 2026-04-24 15:53 | 26.42935 | 49.54621 | 35965 ft | 393 kts | 252° |
| 2026-04-24 15:53 | 26.41228 | 49.48830 | 35962 ft | 393 kts | 252° |
| 2026-04-24 15:54 | 26.39526 | 49.43043 | 35995 ft | 393 kts | 251° |
| 2026-04-24 15:54 | 26.37824 | 49.37260 | 35993 ft | 392 kts | 251° |
| 2026-04-24 15:55 | 26.36116 | 49.31482 | 35983 ft | 392 kts | 251° |
| 2026-04-24 15:55 | 26.34405 | 49.25717 | 35984 ft | 391 kts | 251° |
| 2026-04-24 15:56 | 26.32687 | 49.19962 | 35990 ft | 391 kts | 251° |
| 2026-04-24 15:56 | 26.30971 | 49.14220 | 35987 ft | 390 kts | 251° |
| 2026-04-24 15:57 | 26.29593 | 49.08381 | 35987 ft | 391 kts | 263° |
| 2026-04-24 15:57 | 26.29144 | 49.02332 | 35987 ft | 392 kts | 263° |
| 2026-04-24 15:58 | 26.28688 | 48.96279 | 35979 ft | 392 kts | 263° |
| 2026-04-24 15:58 | 26.28220 | 48.90229 | 35978 ft | 392 kts | 263° |
| 2026-04-24 15:59 | 26.27750 | 48.84181 | 35982 ft | 392 kts | 263° |
| 2026-04-24 15:59 | 26.27279 | 48.78174 | 35984 ft | 392 kts | 263° |
| 2026-04-24 16:00 | 26.26804 | 48.72123 | 35987 ft | 392 kts | 263° |
| 2026-04-24 16:00 | 26.26329 | 48.66079 | 35989 ft | 392 kts | 263° |
| 2026-04-24 16:01 | 26.25855 | 48.60024 | 35985 ft | 392 kts | 263° |
| 2026-04-24 16:01 | 26.25373 | 48.53968 | 35991 ft | 392 kts | 263° |
| 2026-04-24 16:02 | 26.24139 | 48.48098 | 35987 ft | 391 kts | 246° |
| 2026-04-24 16:02 | 26.21840 | 48.42612 | 35994 ft | 391 kts | 246° |
| 2026-04-24 16:03 | 26.19558 | 48.37151 | 35989 ft | 392 kts | 246° |
| 2026-04-24 16:03 | 26.17261 | 48.31641 | 35988 ft | 392 kts | 246° |
| 2026-04-24 16:04 | 26.14959 | 48.26132 | 35991 ft | 393 kts | 246° |
| 2026-04-24 16:04 | 26.12644 | 48.20616 | 35993 ft | 393 kts | 246° |
| 2026-04-24 16:05 | 26.09840 | 48.15403 | 35998 ft | 395 kts | 233° |
| 2026-04-24 16:05 | 26.08090 | 48.13043 | 36002 ft | 395 kts | 233° |
| 2026-04-24 16:06 | 26.02835 | 48.05967 | 36007 ft | 395 kts | 233° |
| 2026-04-24 16:07 | 25.97572 | 47.98890 | 35264 ft | 400 kts | 233° |
| 2026-04-24 16:07 | 25.95777 | 47.96474 | 34115 ft | 410 kts | 233° |
| 2026-04-24 16:07 | 25.92137 | 47.91580 | 32262 ft | 414 kts | 233° |
| 2026-04-24 16:08 | 25.90293 | 47.89107 | 31186 ft | 415 kts | 233° |
| 2026-04-24 16:08 | 25.86629 | 47.84198 | 28985 ft | 410 kts | 232° |
| 2026-04-24 16:09 | 25.83015 | 47.79356 | 26791 ft | 405 kts | 232° |
| 2026-04-24 16:09 | 25.81210 | 47.76940 | 25738 ft | 407 kts | 232° |
| 2026-04-24 16:09 | 25.79412 | 47.74537 | 24749 ft | 402 kts | 232° |
| 2026-04-24 16:09 | 25.77631 | 47.72157 | 23799 ft | 398 kts | 232° |
| 2026-04-24 16:10 | 25.72439 | 47.65217 | 20678 ft | 380 kts | 231° |
| 2026-04-24 16:11 | 25.69112 | 47.60778 | 18517 ft | 373 kts | 230° |
| 2026-04-24 16:11 | 25.67439 | 47.58542 | 17655 ft | 381 kts | 230° |
| 2026-04-24 16:11 | 25.65740 | 47.56269 | 17388 ft | 384 kts | 230° |
| 2026-04-24 16:12 | 25.62356 | 47.51697 | 16879 ft | 383 kts | 233° |
| 2026-04-24 16:12 | 25.60981 | 47.49171 | 16623 ft | 383 kts | 241° |
| 2026-04-24 16:12 | 25.58534 | 47.43949 | 15835 ft | 380 kts | 241° |
| 2026-04-24 16:13 | 25.57316 | 47.41355 | 15437 ft | 378 kts | 241° |
| 2026-04-24 16:13 | 25.54884 | 47.36191 | 14634 ft | 378 kts | 241° |
| 2026-04-24 16:14 | 25.52452 | 47.31033 | 13887 ft | 377 kts | 241° |
| 2026-04-24 16:14 | 25.51228 | 47.28473 | 13458 ft | 376 kts | 240° |
| 2026-04-24 16:14 | 25.48785 | 47.23420 | 12599 ft | 373 kts | 240° |
| 2026-04-24 16:15 | 25.47958 | 47.21712 | 12318 ft | 373 kts | 240° |
| 2026-04-24 16:15 | 25.45116 | 47.15865 | 11363 ft | 370 kts | 240° |
| 2026-04-24 16:16 | 25.42701 | 47.10885 | 10559 ft | 360 kts | 240° |
| 2026-04-24 16:16 | 25.41532 | 47.08475 | 10164 ft | 349 kts | 240° |
| 2026-04-24 16:17 | 25.38502 | 47.02122 | 8915 ft | 286 kts | 240° |
| 2026-04-24 16:17 | 25.36698 | 46.98248 | 8082 ft | 278 kts | 240° |
| 2026-04-24 16:18 | 25.35070 | 46.94666 | 7267 ft | 245 kts | 241° |
| 2026-04-24 16:18 | 25.33642 | 46.91377 | 6503 ft | 235 kts | 241° |
| 2026-04-24 16:18 | 25.32958 | 46.89756 | 6077 ft | 230 kts | 241° |
| 2026-04-24 16:19 | 25.31625 | 46.86613 | 5251 ft | 225 kts | 242° |
| 2026-04-24 16:19 | 25.30929 | 46.85074 | 5033 ft | 221 kts | 239° |
| 2026-04-24 16:20 | 25.29483 | 46.82088 | 5032 ft | 220 kts | 238° |
| 2026-04-24 16:20 | 25.28024 | 46.79118 | 5028 ft | 221 kts | 239° |
| 2026-04-24 16:20 | 25.27296 | 46.77629 | 5023 ft | 219 kts | 237° |
| 2026-04-24 16:21 | 25.25841 | 46.74648 | 5029 ft | 219 kts | 239° |
| 2026-04-24 16:21 | 25.25122 | 46.73166 | 5018 ft | 221 kts | 237° |
| 2026-04-24 16:21 | 25.24404 | 46.71690 | 5019 ft | 219 kts | 239° |
| 2026-04-24 16:22 | 25.23687 | 46.70210 | 5016 ft | 218 kts | 239° |
| 2026-04-24 16:22 | 25.22245 | 46.67242 | 5014 ft | 220 kts | 239° |
| 2026-04-24 16:22 | 25.21519 | 46.65750 | 5019 ft | 219 kts | 237° |
| 2026-04-24 16:23 | 25.20799 | 46.64275 | 5008 ft | 220 kts | 238° |
| 2026-04-24 16:23 | 25.20070 | 46.62784 | 5018 ft | 220 kts | 239° |
| 2026-04-24 16:23 | 25.19337 | 46.61298 | 5008 ft | 221 kts | 234° |
| 2026-04-24 16:24 | 25.17039 | 46.59434 | 5014 ft | 205 kts | 186° |
| 2026-04-24 16:24 | 25.15627 | 46.59336 | 5023 ft | 202 kts | 168° |
| 2026-04-24 16:24 | 25.14298 | 46.59709 | 5012 ft | 192 kts | 151° |
| 2026-04-24 16:24 | 25.13184 | 46.60377 | 5012 ft | 175 kts | 146° |
| 2026-04-24 16:25 | 25.12154 | 46.61029 | 5027 ft | 168 kts | 145° |
| 2026-04-24 16:25 | 25.11156 | 46.61663 | 4907 ft | 164 kts | 145° |
| 2026-04-24 16:25 | 25.10163 | 46.62294 | 4735 ft | 165 kts | 145° |
| 2026-04-24 16:26 | 25.08541 | 46.63322 | 4389 ft | 157 kts | 144° |
| 2026-04-24 16:26 | 25.07594 | 46.63922 | 4190 ft | 156 kts | 144° |
| 2026-04-24 16:26 | 25.05721 | 46.65111 | 3787 ft | 156 kts | 142° |
| 2026-04-24 16:27 | 25.04778 | 46.65708 | 3586 ft | 157 kts | 142° |
| 2026-04-24 16:27 | 25.03828 | 46.66311 | 3380 ft | 159 kts | 143° |
| 2026-04-24 16:27 | 25.02863 | 46.66922 | 3181 ft | 161 kts | 143° |
| 2026-04-24 16:27 | 25.01889 | 46.67539 | 3004 ft | 165 kts | 143° |
| 2026-04-24 16:28 | 25.00830 | 46.68066 | 3306 ft | 172 kts | 165° |
| 2026-04-24 16:28 | 24.99664 | 46.67799 | 3656 ft | 180 kts | 206° |
| 2026-04-24 16:28 | 24.98143 | 46.65624 | 4437 ft | 182 kts | 242° |
| 2026-04-24 16:29 | 24.97586 | 46.64329 | 4579 ft | 200 kts | 243° |
| 2026-04-24 16:29 | 24.96985 | 46.62858 | 4764 ft | 219 kts | 247° |
| 2026-04-24 16:29 | 24.97570 | 46.59599 | 5000 ft | 231 kts | 315° |
| 2026-04-24 16:30 | 25.00205 | 46.57700 | 5009 ft | 224 kts | 333° |
| 2026-04-24 16:30 | 25.01554 | 46.56859 | 5010 ft | 222 kts | 333° |
| 2026-04-24 16:30 | 25.02900 | 46.56016 | 5012 ft | 222 kts | 334° |
| 2026-04-24 16:31 | 25.04249 | 46.55165 | 5012 ft | 223 kts | 332° |
| 2026-04-24 16:31 | 25.05593 | 46.54325 | 5011 ft | 222 kts | 334° |
| 2026-04-24 16:31 | 25.06942 | 46.53468 | 5012 ft | 224 kts | 333° |
| 2026-04-24 16:31 | 25.08290 | 46.52597 | 5011 ft | 225 kts | 333° |
| 2026-04-24 16:32 | 25.09644 | 46.51739 | 5011 ft | 224 kts | 333° |
| 2026-04-24 16:32 | 25.10999 | 46.50899 | 5013 ft | 223 kts | 334° |
| 2026-04-24 16:32 | 25.12358 | 46.50054 | 5011 ft | 225 kts | 333° |
| 2026-04-24 16:32 | 25.13718 | 46.49216 | 5007 ft | 225 kts | 334° |
| 2026-04-24 16:33 | 25.15082 | 46.48380 | 5010 ft | 223 kts | 333° |
| 2026-04-24 16:33 | 25.16488 | 46.47699 | 5003 ft | 219 kts | 355° |
| 2026-04-24 16:33 | 25.17939 | 46.47889 | 5010 ft | 204 kts | 32° |
| 2026-04-24 16:33 | 25.18936 | 46.48859 | 5023 ft | 190 kts | 58° |
| 2026-04-24 16:34 | 25.19663 | 46.50078 | 5019 ft | 190 kts | 62° |
| 2026-04-24 16:34 | 25.20339 | 46.51332 | 5019 ft | 189 kts | 64° |
| 2026-04-24 16:34 | 25.20992 | 46.52588 | 5013 ft | 188 kts | 68° |
| 2026-04-24 16:34 | 25.21163 | 46.53968 | 5013 ft | 182 kts | 105° |
| 2026-04-24 16:35 | 25.20599 | 46.55212 | 5016 ft | 185 kts | 127° |
| 2026-04-24 16:35 | 25.19591 | 46.56101 | 4862 ft | 185 kts | 144° |
| 2026-04-24 16:35 | 25.18481 | 46.56831 | 4771 ft | 186 kts | 145° |
| 2026-04-24 16:35 | 25.17364 | 46.57557 | 4734 ft | 187 kts | 145° |
| 2026-04-24 16:36 | 25.16239 | 46.58287 | 4686 ft | 188 kts | 145° |
| 2026-04-24 16:36 | 25.15116 | 46.59016 | 4649 ft | 187 kts | 144° |
| 2026-04-24 16:36 | 25.14000 | 46.59740 | 4609 ft | 186 kts | 144° |
| 2026-04-24 16:36 | 25.12905 | 46.60477 | 4565 ft | 180 kts | 142° |
| 2026-04-24 16:37 | 25.11872 | 46.61180 | 4514 ft | 170 kts | 144° |
| 2026-04-24 16:37 | 25.10880 | 46.61827 | 4497 ft | 165 kts | 143° |
| 2026-04-24 16:37 | 25.09889 | 46.62463 | 4463 ft | 164 kts | 143° |
| 2026-04-24 16:37 | 25.08903 | 46.63091 | 4395 ft | 164 kts | 143° |
| 2026-04-24 16:38 | 25.07910 | 46.63722 | 4228 ft | 165 kts | 143° |
| 2026-04-24 16:38 | 25.06911 | 46.64356 | 4036 ft | 166 kts | 144° |
| 2026-04-24 16:38 | 25.05906 | 46.64993 | 3819 ft | 166 kts | 142° |
| 2026-04-24 16:38 | 25.04926 | 46.65613 | 3623 ft | 158 kts | 143° |
| 2026-04-24 16:39 | 25.03995 | 46.66202 | 3414 ft | 152 kts | 142° |
| 2026-04-24 16:39 | 25.03085 | 46.66779 | 3227 ft | 151 kts | 142° |
| 2026-04-24 16:39 | 25.02179 | 46.67354 | 3034 ft | 150 kts | 142° |
| 2026-04-24 16:39 | 25.01276 | 46.67926 | 2855 ft | 149 kts | 142° |
| 2026-04-24 16:40 | 25.00363 | 46.68505 | 2701 ft | 151 kts | 144° |
| 2026-04-24 16:40 | 24.99459 | 46.69078 | 2483 ft | 148 kts | 147° |
| 2026-04-24 16:40 | 24.98571 | 46.69642 | 2305 ft | 147 kts | 146° |
| 2026-04-24 16:40 | 24.97698 | 46.70191 | 2108 ft | 146 kts | 145° |
| 2026-04-24 16:41 | 24.96826 | 46.70738 | 2038 ft | 141 kts | 144° |
| 2026-04-24 16:41 | 24.96110 | 46.71205 | 2036 ft | 81 kts | 150° |
| 2026-04-24 16:41 | 24.95817 | 46.71386 | 2036 ft | 33 kts | 156° |
| 2026-04-24 16:41 | 24.95633 | 46.71426 | 2032 ft | 21 kts | 180° |
| 2026-04-24 16:42 | 24.95528 | 46.71400 | 2033 ft | 14 kts | 208° |
| 2026-04-24 16:42 | 24.95481 | 46.71357 | 2036 ft | 0 kts | 229° |
| 2026-04-24 16:43 | 24.95466 | 46.71338 | 2036 ft | 7 kts | 229° |
| 2026-04-24 16:43 | 24.95430 | 46.71300 | 2038 ft | 6 kts | 204° |
| 2026-04-24 16:43 | 24.95394 | 46.71308 | 2040 ft | 5 kts | 154° |
| 2026-04-24 16:44 | 24.95368 | 46.71324 | 2034 ft | 4 kts | 151° |
| 2026-04-24 16:44 | 24.95348 | 46.71336 | 2043 ft | 3 kts | 151° |
| 2026-04-24 16:44 | 24.95336 | 46.71344 | 2038 ft | 2 kts | 151° |
| 2026-04-24 16:44 | 24.95264 | 46.71390 | 2039 ft | 21 kts | 149° |
| 2026-04-24 16:45 | 24.95130 | 46.71477 | 2037 ft | 22 kts | 149° |
| 2026-04-24 16:45 | 24.94997 | 46.71561 | 2036 ft | 22 kts | 150° |
| 2026-04-24 16:45 | 24.94878 | 46.71635 | 2041 ft | 13 kts | 150° |
| 2026-04-24 16:45 | 24.94802 | 46.71648 | 2037 ft | 11 kts | 213° |
| 2026-04-24 16:46 | 24.94776 | 46.71579 | 2038 ft | 9 kts | 277° |
| 2026-04-24 16:46 | 24.94826 | 46.71528 | 2038 ft | 14 kts | 329° |
| 2026-04-24 16:46 | 24.94953 | 46.71448 | 2038 ft | 27 kts | 330° |
| 2026-04-24 16:46 | 24.95093 | 46.71355 | 2040 ft | 11 kts | 310° |
| 2026-04-24 16:47 | 24.95081 | 46.71325 | 2036 ft | 3 kts | 219° |
| 2026-04-24 16:47 | 24.95062 | 46.71294 | 2043 ft | 3 kts | 239° |
| 2026-04-24 16:47 | 24.95051 | 46.71273 | 2036 ft | 3 kts | 241° |
| 2026-04-24 16:47 | 24.95042 | 46.71255 | 2037 ft | 1 kts | 241° |
| 2026-04-24 16:48 | 24.95042 | 46.71254 | 2037 ft | 0 kts | 241° |